Atlantic Clover — 3FVD6 — position and weather

sailwx.info

Track history (hours):
 
Tides and Currents Weather Stations Pressure Air Temp Water Temp Dewpoint Dewpoint Depression Visibility Wind Speed Wind Dir Waves Ship Positions

Atlantic Clover

Last reported at 2016-Dec-30 01:33 UTC. Time now 2017-Jan-17 15:10 UTC.
Position S 35°22' W 054°33'.
Warning: this ship's position is 18 days out of date.

Length 180 m; draft 9.2 m.

Type: Cargo ship. MMSI: 371263000.

Date/timePositionNaut miles runAvg speedWind from/ knotsBaromVisibWave heightAir tempDewpointWater temp
2016-Dec-30 01:33S 35°22' W 054°33'1211.2
2016-Dec-30 00:30S 35°17' W 054°46'2110.8
2016-Dec-29 22:33S 35°08' W 055°09'1110.9
2016-Dec-29 21:33S 35°06' W 055°22'112 9.0
2016-Dec-29 09:11S 34°45' W 057°36'812.6
2016-Dec-29 08:33S 34°44' W 057°45'8 7.7
2016-Dec-29 07:33S 34°42' W 057°54'1211.9
2016-Dec-29 06:33S 34°38' W 058°08'1110.5
2016-Dec-29 05:30S 34°32' W 058°19'1010.8
2016-Dec-29 04:33S 34°24' W 058°27'28 9.3
2016-Dec-29 01:33S 34°09' W 058°55'8 8.1
2016-Dec-29 00:33S 34°03' W 059°02'4 4.2
2016-Dec-28 23:33S 34°01' W 059°07'  
2016-Dec-26 01:31S 34°25' W 058°26'1110.1
2016-Dec-26 00:24S 34°34' W 058°17'1011.6
2016-Dec-25 23:33S 34°38' W 058°07'1212.5
2016-Dec-25 22:33S 34°42' W 057°52'6 3.0
2016-Dec-25 20:33S 34°45' W 057°46'0 0.1
2016-Dec-25 19:33S 34°46' W 057°46'0 0.1
2016-Dec-25 18:33S 34°46' W 057°46'0 0.0
2016-Dec-25 17:33S 34°46' W 057°46'0 0.0
2016-Dec-25 16:30S 34°46' W 057°46'0 0.1
2016-Dec-25 15:33S 34°46' W 057°46'0 0.1
2016-Dec-25 14:06S 34°45' W 057°46'0 0.1
2016-Dec-25 13:33S 34°45' W 057°46'0 0.0
2016-Dec-25 12:30S 34°45' W 057°46'0 0.2
2016-Dec-25 11:33S 34°46' W 057°46'0 0.0
2016-Dec-25 10:33S 34°46' W 057°46'0 0.0
2016-Dec-25 09:33S 34°46' W 057°46'0 0.0
2016-Dec-25 08:33S 34°46' W 057°46'0 0.0
2016-Dec-25 07:33S 34°46' W 057°46'0 0.0
2016-Dec-25 06:33S 34°46' W 057°46'0 0.0
2016-Dec-25 05:33S 34°46' W 057°46'0 0.0
2016-Dec-25 04:33S 34°46' W 057°46'0 0.0
2016-Dec-25 03:33S 34°46' W 057°46'0 0.0
2016-Dec-25 02:33S 34°46' W 057°46'2 2.0
2016-Dec-25 01:33S 34°44' W 057°44'1211.6
2016-Dec-25 00:33S 34°47' W 057°30'1312.8
2016-Dec-24 23:33S 34°54' W 057°18'1211.8
2016-Dec-24 22:33S 35°03' W 057°08'1111.1
2016-Dec-24 21:33S 35°10' W 056°57'1212.4
2016-Dec-24 20:33S 35°10' W 056°42'3210.0
2016-Dec-24 17:20S 34°60' W 056°05'23 7.8
2016-Dec-24 14:19S 35°02' W 055°36'810.4
2016-Dec-24 13:33S 35°02' W 055°27'1110.7
2016-Dec-24 12:33S 35°03' W 055°14'1212.2
2016-Dec-24 11:33S 35°03' W 054°59'5112.7
2016-Dec-24 07:32S 35°04' W 053°57'1212.6
2016-Dec-24 06:33S 35°03' W 053°41'1212.1
2016-Dec-24 05:33S 35°02' W 053°27'1212.1
2016-Dec-24 04:33S 35°01' W 053°12'  
Track history (hours):
 
Tides and Currents Weather Stations Pressure Air Temp Water Temp Dewpoint Dewpoint Depression Visibility Wind Speed Wind Dir Waves Ship Positions

Atlantic Clover

Last reported at 2016-Dec-30 01:33 UTC. Time now 2017-Jan-17 15:10 UTC.
Position S 35°22' W 054°33'.
Warning: this ship's position is 18 days out of date.

Length 180 m; draft 9.2 m.

Type: Cargo ship. MMSI: 371263000.

Date/timePositionNaut miles runAvg speedWind from/ knotsBaromVisibWave heightAir tempDewpointWater temp
2016-Dec-30 01:33S 35°22' W 054°33'1211.2
2016-Dec-30 00:30S 35°17' W 054°46'2110.8
2016-Dec-29 22:33S 35°08' W 055°09'1110.9
2016-Dec-29 21:33S 35°06' W 055°22'112 9.0
2016-Dec-29 09:11S 34°45' W 057°36'812.6
2016-Dec-29 08:33S 34°44' W 057°45'8 7.7
2016-Dec-29 07:33S 34°42' W 057°54'1211.9
2016-Dec-29 06:33S 34°38' W 058°08'1110.5
2016-Dec-29 05:30S 34°32' W 058°19'1010.8
2016-Dec-29 04:33S 34°24' W 058°27'28 9.3
2016-Dec-29 01:33S 34°09' W 058°55'8 8.1
2016-Dec-29 00:33S 34°03' W 059°02'4 4.2
2016-Dec-28 23:33S 34°01' W 059°07'  
2016-Dec-26 01:31S 34°25' W 058°26'1110.1
2016-Dec-26 00:24S 34°34' W 058°17'1011.6
2016-Dec-25 23:33S 34°38' W 058°07'1212.5
2016-Dec-25 22:33S 34°42' W 057°52'6 3.0
2016-Dec-25 20:33S 34°45' W 057°46'0 0.1
2016-Dec-25 19:33S 34°46' W 057°46'0 0.1
2016-Dec-25 18:33S 34°46' W 057°46'0 0.0
2016-Dec-25 17:33S 34°46' W 057°46'0 0.0
2016-Dec-25 16:30S 34°46' W 057°46'0 0.1
2016-Dec-25 15:33S 34°46' W 057°46'0 0.1
2016-Dec-25 14:06S 34°45' W 057°46'0 0.1
2016-Dec-25 13:33S 34°45' W 057°46'0 0.0
2016-Dec-25 12:30S 34°45' W 057°46'0 0.2
2016-Dec-25 11:33S 34°46' W 057°46'0 0.0
2016-Dec-25 10:33S 34°46' W 057°46'0 0.0
2016-Dec-25 09:33S 34°46' W 057°46'0 0.0
2016-Dec-25 08:33S 34°46' W 057°46'0 0.0
2016-Dec-25 07:33S 34°46' W 057°46'0 0.0
2016-Dec-25 06:33S 34°46' W 057°46'0 0.0
2016-Dec-25 05:33S 34°46' W 057°46'0 0.0
2016-Dec-25 04:33S 34°46' W 057°46'0 0.0
2016-Dec-25 03:33S 34°46' W 057°46'0 0.0
2016-Dec-25 02:33S 34°46' W 057°46'2 2.0
2016-Dec-25 01:33S 34°44' W 057°44'1211.6
2016-Dec-25 00:33S 34°47' W 057°30'1312.8
2016-Dec-24 23:33S 34°54' W 057°18'1211.8
2016-Dec-24 22:33S 35°03' W 057°08'1111.1
2016-Dec-24 21:33S 35°10' W 056°57'1212.4
2016-Dec-24 20:33S 35°10' W 056°42'3210.0
2016-Dec-24 17:20S 34°60' W 056°05'23 7.8
2016-Dec-24 14:19S 35°02' W 055°36'810.4
2016-Dec-24 13:33S 35°02' W 055°27'1110.7
2016-Dec-24 12:33S 35°03' W 055°14'1212.2
2016-Dec-24 11:33S 35°03' W 054°59'5112.7
2016-Dec-24 07:32S 35°04' W 053°57'1212.6
2016-Dec-24 06:33S 35°03' W 053°41'1212.1
2016-Dec-24 05:33S 35°02' W 053°27'1212.1
2016-Dec-24 04:33S 35°01' W 053°12'  

Dump ship's entire track history